Time;durP1;ratioP1;P1;durP2;ratioP2;P2;SDS_P1;SDS_P2;PMS_P1;PMS_P2;Temp;Humidity;BMP_temperature;BMP_pressure;BME280_temperature;BME280_humidity;BME280_pressure;Samples;Min_cycle;Max_cycle;Signal;HPM_P1;HPM_P2
2021/08/18 00:00:15;;;;;;;16.30;10.05;;;;;;;15.31;78.51;100028.59;1623188;47;20158;-77
2021/08/18 00:01:47;;;;;;;18.95;11.15;;;;;;;15.30;78.26;100024.25;1622181;47;20041;-77
2021/08/18 00:03:20;;;;;;;15.27;9.45;;;;;;;15.31;78.39;100028.59;1622127;47;20086;-78
2021/08/18 00:04:55;;;;;;;15.70;9.38;;;;;;;15.34;78.31;100022.88;1621960;47;20034;-78
2021/08/18 00:06:28;;;;;;;17.15;10.60;;;;;;;15.36;78.06;100020.84;1622314;54;20039;-78
2021/08/18 00:08:02;;;;;;;18.27;11.07;;;;;;;15.34;78.19;100024.72;1621898;47;20064;-78
2021/08/18 00:09:35;;;;;;;15.15;9.50;;;;;;;15.32;78.32;100027.59;1622934;54;20668;-77
2021/08/18 00:11:12;;;;;;;14.20;9.32;;;;;;;15.32;78.02;100024.06;1621771;47;20092;-77
2021/08/18 00:12:45;;;;;;;18.98;10.13;;;;;;;15.27;78.09;100017.34;1622407;47;20035;-78
2021/08/18 00:14:19;;;;;;;18.95;11.48;;;;;;;15.23;78.37;100017.88;1621459;54;20149;-78
2021/08/18 00:15:56;;;;;;;16.25;9.57;;;;;;;15.23;78.35;100025.94;1622359;48;20042;-77
2021/08/18 00:17:29;;;;;;;18.63;10.38;;;;;;;15.22;78.63;100022.44;1621528;47;20034;-78
2021/08/18 00:19:03;;;;;;;19.95;11.30;;;;;;;15.22;78.70;100013.50;1622155;47;20040;-78
2021/08/18 00:20:37;;;;;;;17.77;10.40;;;;;;;15.23;78.63;100020.56;1621941;47;20036;-77
2021/08/18 00:22:11;;;;;;;18.88;10.48;;;;;;;15.24;78.86;100017.72;1622349;47;20087;-78
2021/08/18 00:23:45;;;;;;;16.73;10.48;;;;;;;15.24;78.77;100019.53;1621903;47;20038;-77
2021/08/18 00:25:19;;;;;;;17.42;10.57;;;;;;;15.21;78.85;100017.22;1622425;47;20045;-78
2021/08/18 00:26:55;;;;;;;18.95;11.63;;;;;;;15.21;78.71;100022.63;1623194;54;20038;-77
2021/08/18 00:28:29;;;;;;;18.70;10.60;;;;;;;15.20;78.74;100013.69;1622322;47;20167;-77
2021/08/18 00:30:03;;;;;;;20.77;12.20;;;;;;;15.21;78.57;100014.53;1623388;47;20046;-77
2021/08/18 00:31:37;;;;;;;19.38;10.40;;;;;;;15.19;78.69;100016.56;1623306;54;20034;-77
2021/08/18 00:33:10;;;;;;;18.83;10.80;;;;;;;15.19;78.60;100016.56;1621904;54;20093;-77
2021/08/18 00:34:44;;;;;;;18.35;11.25;;;;;;;15.19;78.48;100022.78;1622024;47;20034;-77
2021/08/18 00:36:18;;;;;;;19.15;10.63;;;;;;;15.21;78.49;100017.22;1623685;47;20041;-77
2021/08/18 00:37:51;;;;;;;17.63;11.30;;;;;;;15.20;78.24;100026.31;1624553;39;20538;-77
2021/08/18 00:39:25;;;;;;;16.88;10.50;;;;;;;15.21;78.22;100025.31;1625091;47;20042;-78
2021/08/18 00:40:58;;;;;;;19.35;11.10;;;;;;;15.21;78.40;100022.63;1622947;54;20184;-77
2021/08/18 00:42:35;;;;;;;21.55;11.55;;;;;;;15.20;77.98;100024.44;1622739;50;20034;-79
2021/08/18 00:44:09;;;;;;;19.25;11.05;;;;;;;15.20;77.95;100020.94;1622999;47;20038;-78
2021/08/18 00:45:42;;;;;;;19.17;11.55;;;;;;;15.19;77.77;100024.63;1622534;54;20035;-78
2021/08/18 00:47:16;;;;;;;17.05;10.13;;;;;;;15.22;77.77;100019.75;1622657;54;20046;-77
2021/08/18 00:48:50;;;;;;;18.95;10.70;;;;;;;15.23;77.68;100007.94;1622334;47;20034;-77
2021/08/18 00:50:25;;;;;;;18.02;10.25;;;;;;;15.23;77.92;100016.03;1622650;46;20054;-78
2021/08/18 00:52:01;;;;;;;17.92;10.70;;;;;;;15.31;77.84;100015.13;1622289;50;20034;-78
2021/08/18 00:53:35;;;;;;;17.35;10.82;;;;;;;15.40;77.48;100016.75;1622213;47;20168;-77
2021/08/18 00:55:12;;;;;;;21.42;10.68;;;;;;;15.41;77.39;100013.06;1621873;54;20037;-78
2021/08/18 00:56:46;;;;;;;19.88;10.60;;;;;;;15.40;77.15;100008.69;1621989;54;20035;-79
2021/08/18 00:58:23;;;;;;;15.48;10.27;;;;;;;15.43;77.14;100013.72;1621560;54;20067;-78
2021/08/18 00:59:57;;;;;;;16.15;9.88;;;;;;;15.44;77.14;100009.19;1623212;51;20038;-78
2021/08/18 01:01:31;;;;;;;16.10;10.50;;;;;;;15.48;77.02;100007.81;1622842;47;20049;-78
2021/08/18 01:03:04;;;;;;;18.65;10.90;;;;;;;15.47;77.19;100013.38;1623841;39;20772;-78
2021/08/18 01:04:38;;;;;;;18.92;10.48;;;;;;;15.42;76.84;100009.34;1621382;52;20042;-79
2021/08/18 01:06:12;;;;;;;17.75;10.55;;;;;;;15.41;77.00;100012.22;1622434;47;20069;-78
2021/08/18 01:07:46;;;;;;;17.75;10.43;;;;;;;15.42;76.85;100003.13;1621667;47;20034;-77
2021/08/18 01:09:21;;;;;;;15.07;8.80;;;;;;;15.43;76.91;100011.03;1621800;54;20034;-78
2021/08/18 01:10:55;;;;;;;17.50;10.25;;;;;;;15.48;76.92;99996.19;1621796;47;20201;-78
2021/08/18 01:12:28;;;;;;;14.80;9.55;;;;;;;15.52;76.88;99994.81;1622695;39;20904;-78
2021/08/18 01:14:05;;;;;;;17.52;10.05;;;;;;;15.53;76.41;99999.19;1622563;54;20034;-77
2021/08/18 01:15:38;;;;;;;17.20;10.50;;;;;;;15.48;76.05;99997.03;1622883;54;20038;-79
2021/08/18 01:17:15;;;;;;;18.65;11.15;;;;;;;15.47;76.55;99989.13;1622015;47;20035;-79
2021/08/18 01:18:48;;;;;;;18.48;10.93;;;;;;;15.46;76.55;99988.28;1621551;47;20038;-78
2021/08/18 01:20:22;;;;;;;17.67;10.40;;;;;;;15.49;76.79;99996.00;1622697;39;20517;-78
2021/08/18 01:21:55;;;;;;;16.55;10.13;;;;;;;15.47;76.78;99997.22;1623058;47;20069;-78
2021/08/18 01:23:29;;;;;;;20.05;11.70;;;;;;;15.46;76.58;100003.63;1623596;47;20034;-78
2021/08/18 01:25:02;;;;;;;16.50;8.95;;;;;;;15.44;76.45;100001.94;1622466;47;20042;-79
2021/08/18 01:26:37;;;;;;;20.50;10.75;;;;;;;15.46;76.65;100009.00;1624573;47;20031;-78
2021/08/18 01:28:12;;;;;;;18.50;10.57;;;;;;;15.45;76.42;100000.06;1623495;47;20036;-78
2021/08/18 01:29:48;;;;;;;15.55;8.98;;;;;;;15.43;76.45;100005.66;1624424;54;20164;-79
2021/08/18 01:31:21;;;;;;;16.40;8.98;;;;;;;15.45;76.23;99994.69;1623111;39;20668;-78
2021/08/18 01:33:02;;;;;;;15.30;8.82;;;;;;;15.52;75.85;100002.91;1623361;47;20604;-78
2021/08/18 01:34:37;;;;;;;16.95;10.45;;;;;;;15.56;75.86;100006.91;1622886;47;20041;-78
2021/08/18 01:36:11;;;;;;;20.17;9.57;;;;;;;15.56;75.75;100001.53;1624504;39;20553;-78
2021/08/18 01:37:42;;;;;;;15.15;9.38;;;;;;;15.53;75.70;99999.19;1623093;54;20070;-78
2021/08/18 01:39:15;;;;;;;16.40;10.20;;;;;;;15.50;75.84;100008.47;1622623;46;20154;-78
2021/08/18 01:40:54;;;;;;;17.23;10.50;;;;;;;15.47;75.82;100002.59;1622529;47;20034;-78
2021/08/18 01:42:27;;;;;;;15.45;9.93;;;;;;;15.48;75.99;100012.38;1622688;47;20117;-79
2021/08/18 01:44:01;;;;;;;19.55;10.90;;;;;;;15.48;75.92;100004.28;1623056;54;20170;-79
2021/08/18 01:45:38;;;;;;;18.48;9.65;;;;;;;15.49;75.92;100008.66;1624429;39;20438;-77
2021/08/18 01:47:14;;;;;;;14.02;8.30;;;;;;;15.49;75.82;100009.47;1623490;47;20796;-76
2021/08/18 01:48:48;;;;;;;16.73;10.38;;;;;;;15.50;75.97;100004.91;1622967;47;20035;-77
2021/08/18 01:50:23;;;;;;;16.88;11.25;;;;;;;15.52;75.73;100000.19;1623959;47;20042;-76
2021/08/18 01:51:56;;;;;;;20.02;10.60;;;;;;;15.51;75.81;100001.22;1623212;47;20046;-77
2021/08/18 01:53:33;;;;;;;16.13;10.23;;;;;;;15.50;75.90;100000.38;1625124;39;20128;-77
2021/08/18 01:55:05;;;;;;;17.42;10.23;;;;;;;15.52;75.58;100001.06;1623068;47;21491;-77
2021/08/18 01:56:38;;;;;;;17.23;10.57;;;;;;;15.51;75.74;99999.38;1623631;47;20061;-76
2021/08/18 01:58:12;;;;;;;22.50;11.02;;;;;;;15.51;75.87;100001.22;1623422;54;20153;-76
2021/08/18 01:59:46;;;;;;;15.63;10.57;;;;;;;15.50;75.82;100000.38;1621741;54;20131;-77
2021/08/18 02:01:23;;;;;;;21.30;10.68;;;;;;;15.51;75.64;100001.22;1622638;47;20039;-76
2021/08/18 02:02:54;;;;;;;27.58;10.77;;;;;;;15.52;75.75;100005.59;1624080;47;20030;-77
2021/08/18 02:04:29;;;;;;;17.13;10.60;;;;;;;15.52;75.49;100002.91;1623492;31;20502;-77
2021/08/18 02:06:03;;;;;;;20.67;12.27;;;;;;;15.52;75.29;100005.59;1623903;47;20034;-77
2021/08/18 02:07:34;;;;;;;19.50;11.65;;;;;;;15.48;75.40;100001.59;1623872;47;20038;-76
2021/08/18 02:09:08;;;;;;;24.30;12.50;;;;;;;15.49;75.58;100012.19;1622284;54;20035;-77
2021/08/18 02:10:42;;;;;;;22.90;12.35;;;;;;;15.48;75.51;100007.81;1623435;47;20040;-76
2021/08/18 02:12:15;;;;;;;18.55;11.05;;;;;;;15.52;75.27;100008.28;1623632;39;20517;-76
2021/08/18 02:13:49;;;;;;;18.15;10.70;;;;;;;15.55;75.14;100005.25;1623779;54;20030;-76
2021/08/18 02:15:26;;;;;;;17.92;11.32;;;;;;;15.55;75.35;100002.53;1622909;54;20600;-77
2021/08/18 02:17:02;;;;;;;17.17;11.50;;;;;;;15.56;75.28;100004.22;1623075;54;20039;-76
2021/08/18 02:18:36;;;;;;;17.58;11.30;;;;;;;15.56;75.41;99998.84;1622543;47;20034;-77
2021/08/18 02:20:14;;;;;;;18.83;10.20;;;;;;;15.57;75.10;99995.13;1622218;54;20048;-78
2021/08/18 02:21:47;;;;;;;19.45;11.43;;;;;;;15.57;75.41;100001.34;1622725;47;20596;-77
2021/08/18 02:23:21;;;;;;;19.13;11.02;;;;;;;15.59;75.35;99995.75;1622123;47;20056;-77
2021/08/18 02:24:54;;;;;;;17.48;10.90;;;;;;;15.57;75.38;100000.53;1623194;46;20065;-77
2021/08/18 02:26:28;;;;;;;19.58;10.95;;;;;;;15.59;75.27;100002.00;1622403;54;20034;-78
2021/08/18 02:28:01;;;;;;;19.40;11.00;;;;;;;15.57;75.41;100001.34;1622670;47;20049;-78
2021/08/18 02:29:35;;;;;;;17.00;10.15;;;;;;;15.53;75.44;99993.81;1621992;47;20041;-77
2021/08/18 02:31:09;;;;;;;18.60;11.25;;;;;;;15.54;75.65;99995.47;1623335;54;20030;-78
2021/08/18 02:32:46;;;;;;;17.88;10.35;;;;;;;15.55;75.35;99997.97;1623214;47;20130;-77
2021/08/18 02:34:19;;;;;;;20.38;11.45;;;;;;;15.57;75.38;99989.75;1621895;49;20034;-78
2021/08/18 02:35:53;;;;;;;18.83;10.63;;;;;;;15.58;75.30;99997.63;1622685;47;20041;-78
2021/08/18 02:37:27;;;;;;;19.80;10.93;;;;;;;15.59;75.54;99990.38;1622926;47;20107;-76
2021/08/18 02:39:00;;;;;;;15.82;10.30;;;;;;;15.59;75.62;100003.84;1623457;47;20030;-77
2021/08/18 02:40:34;;;;;;;14.57;10.15;;;;;;;15.63;75.55;100002.50;1623404;39;21125;-77
2021/08/18 02:42:10;;;;;;;16.85;10.48;;;;;;;15.66;75.31;99993.19;1623309;54;20034;-77
2021/08/18 02:43:43;;;;;;;19.67;11.18;;;;;;;15.66;75.37;100007.53;1621853;47;20118;-77
2021/08/18 02:45:28;;;;;;;19.75;10.95;;;;;;;15.72;75.01;100003.28;1626284;47;20031;-78
2021/08/18 02:47:03;;;;;;;18.58;11.48;;;;;;;15.69;75.21;99996.38;1630339;47;20098;-77
2021/08/18 02:48:39;;;;;;;20.02;11.23;;;;;;;15.68;75.40;99992.00;1630121;47;20098;-77
2021/08/18 02:50:15;;;;;;;16.63;9.50;;;;;;;15.68;75.33;99997.38;1623489;54;20039;-76
2021/08/18 02:51:48;;;;;;;16.65;8.85;;;;;;;15.65;75.14;99996.91;1623493;47;20055;-76
2021/08/18 02:53:22;;;;;;;17.42;10.07;;;;;;;15.68;75.45;100002.78;1622738;39;20452;-77
2021/08/18 02:54:53;;;;;;;16.05;9.88;;;;;;;15.73;75.38;99994.16;1622955;47;20801;-76
2021/08/18 02:56:27;;;;;;;15.70;9.65;;;;;;;15.72;75.12;100000.59;1623440;47;20042;-76
2021/08/18 02:58:01;;;;;;;15.00;9.95;;;;;;;15.70;75.13;99999.91;1621676;52;20035;-77
2021/08/18 02:59:35;;;;;;;15.23;9.80;;;;;;;15.71;75.21;99997.03;1622296;54;20034;-76
2021/08/18 03:01:08;;;;;;;18.50;9.50;;;;;;;15.69;75.00;99993.69;1622923;47;20120;-75
2021/08/18 03:02:42;;;;;;;19.52;10.45;;;;;;;15.63;75.53;100007.06;1623317;54;20736;-77
2021/08/18 03:04:18;;;;;;;20.33;10.40;;;;;;;15.64;75.27;100004.16;1623072;54;20037;-76
2021/08/18 03:05:52;;;;;;;16.48;10.05;;;;;;;15.65;75.46;100000.47;1623301;50;20757;-77
2021/08/18 03:07:23;;;;;;;18.10;9.40;;;;;;;15.67;75.26;100002.97;1623064;46;20037;-77
2021/08/18 03:08:56;;;;;;;19.38;10.68;;;;;;;15.66;75.59;99999.44;1623172;54;20109;-77
2021/08/18 03:10:32;;;;;;;17.40;9.68;;;;;;;15.69;75.33;100003.63;1622897;47;20037;-77
2021/08/18 03:12:07;;;;;;;16.90;10.07;;;;;;;15.69;75.61;99999.06;1625507;39;20520;-77
2021/08/18 03:13:41;;;;;;;18.20;10.68;;;;;;;15.74;75.16;100004.78;1627103;54;20049;-77
2021/08/18 03:15:15;;;;;;;16.38;9.38;;;;;;;15.73;75.38;100008.47;1627648;54;20039;-77
2021/08/18 03:16:49;;;;;;;16.05;9.43;;;;;;;15.75;75.51;99998.38;1628586;54;20121;-77
2021/08/18 03:18:23;;;;;;;15.30;10.75;;;;;;;15.81;75.37;100004.03;1627849;47;20069;-77
2021/08/18 03:19:59;;;;;;;15.18;9.80;;;;;;;15.78;75.30;100002.56;1628472;47;20106;-78
2021/08/18 03:21:33;;;;;;;18.20;9.32;;;;;;;15.74;75.25;100007.47;1629106;47;20368;-76
2021/08/18 03:23:06;;;;;;;17.33;9.63;;;;;;;15.72;75.33;100009.50;1629492;54;20069;-78
2021/08/18 03:24:40;;;;;;;15.70;9.15;;;;;;;15.70;75.57;100013.41;1623990;54;20047;-79
2021/08/18 03:26:13;;;;;;;16.33;9.15;;;;;;;15.73;75.52;99999.53;1621515;47;20035;-78
2021/08/18 03:27:47;;;;;;;16.65;9.18;;;;;;;15.77;75.48;100010.81;1624310;47;20661;-78
2021/08/18 03:29:20;;;;;;;14.85;9.18;;;;;;;15.77;75.42;100000.06;1623483;54;20044;-77
2021/08/18 03:30:54;;;;;;;13.18;8.05;;;;;;;15.82;75.49;100013.81;1623927;54;20146;-77
2021/08/18 03:32:33;;;;;;;17.30;9.23;;;;;;;15.82;75.15;100008.41;1623651;54;20031;-77
2021/08/18 03:34:18;;;;;;;14.80;9.77;;;;;;;15.79;75.28;100008.78;1623482;47;20042;-76
2021/08/18 03:36:05;;;;;;;15.93;9.85;;;;;;;15.72;75.54;100009.50;1622552;47;20044;-77
2021/08/18 03:37:39;;;;;;;14.90;9.15;;;;;;;15.72;75.83;100009.50;1622719;47;20034;-78
2021/08/18 03:39:13;;;;;;;16.25;9.43;;;;;;;15.69;75.94;100007.16;1630072;47;20038;-76
2021/08/18 03:40:52;;;;;;;14.23;9.27;;;;;;;15.67;75.97;100005.66;1630130;47;20050;-76
2021/08/18 03:42:25;;;;;;;13.18;9.02;;;;;;;15.64;76.11;100008.69;1630301;50;20038;-78
2021/08/18 03:43:59;;;;;;;12.02;8.15;;;;;;;15.65;76.21;100010.38;1629600;47;20086;-77
2021/08/18 03:45:33;;;;;;;13.00;7.80;;;;;;;15.68;76.03;100010.84;1629147;47;20038;-76
2021/08/18 03:47:06;;;;;;;14.23;8.57;;;;;;;15.68;75.80;100001.94;1628933;47;20631;-79
2021/08/18 03:48:40;;;;;;;15.55;7.95;;;;;;;15.68;76.12;100002.78;1630954;54;20065;-79
2021/08/18 03:50:14;;;;;;;14.32;8.38;;;;;;;15.68;75.78;100002.78;1623574;54;20041;-77
2021/08/18 03:51:51;;;;;;;12.05;7.95;;;;;;;15.65;75.93;100008.53;1623695;47;20568;-78
2021/08/18 03:53:24;;;;;;;17.48;9.02;;;;;;;15.65;76.25;100005.84;1623705;47;20045;-78
2021/08/18 03:54:58;;;;;;;14.13;8.52;;;;;;;15.62;76.24;100002.69;1623301;54;20038;-78
2021/08/18 03:56:32;;;;;;;11.85;7.47;;;;;;;15.63;76.51;100007.88;1623979;54;20069;-77
2021/08/18 03:58:06;;;;;;;13.13;8.73;;;;;;;15.66;76.45;100009.38;1623958;47;20036;-77
2021/08/18 03:59:40;;;;;;;12.48;8.07;;;;;;;15.62;76.44;100008.06;1623005;47;20041;-78
2021/08/18 04:01:14;;;;;;;14.30;7.88;;;;;;;15.56;76.40;100009.63;1624183;54;20040;-79
2021/08/18 04:02:48;;;;;;;17.35;8.38;;;;;;;15.55;76.82;100007.94;1622783;54;20950;-78
2021/08/18 04:04:22;;;;;;;13.48;7.70;;;;;;;15.56;76.57;100002.34;1623271;47;20049;-79
2021/08/18 04:05:55;;;;;;;14.32;8.07;;;;;;;15.59;76.51;99999.31;1624178;47;20042;-78
2021/08/18 04:07:32;;;;;;;10.15;7.35;;;;;;;15.63;76.72;100004.34;1623919;54;20640;-78
2021/08/18 04:09:05;;;;;;;11.85;7.70;;;;;;;15.63;76.51;100005.19;1623253;47;20031;-78
2021/08/18 04:10:40;;;;;;;13.85;8.43;;;;;;;15.61;76.79;100012.59;1622750;47;20041;-78
2021/08/18 04:12:13;;;;;;;12.80;7.93;;;;;;;15.61;76.69;100004.53;1623658;51;20179;-78
2021/08/18 04:13:47;;;;;;;13.40;8.65;;;;;;;15.59;76.88;100009.25;1622530;54;20030;-78
2021/08/18 04:15:21;;;;;;;14.10;8.68;;;;;;;15.57;76.75;100011.28;1623658;54;20030;-78
2021/08/18 04:16:54;;;;;;;16.15;8.70;;;;;;;15.55;76.73;100016.84;1622324;54;20098;-78
2021/08/18 04:18:28;;;;;;;14.27;8.45;;;;;;;15.55;76.91;100013.31;1623225;46;20037;-78
2021/08/18 04:20:01;;;;;;;13.32;8.90;;;;;;;15.52;77.09;100010.97;1623011;54;20130;-78
2021/08/18 04:21:35;;;;;;;14.15;8.70;;;;;;;15.52;76.98;100008.28;1623632;47;20052;-78
2021/08/18 04:23:11;;;;;;;12.57;8.60;;;;;;;15.53;77.28;100009.97;1623582;47;20034;-78
2021/08/18 04:24:45;;;;;;;17.10;9.38;;;;;;;15.56;77.11;100010.44;1623414;54;20048;-78
2021/08/18 04:26:19;;;;;;;16.30;9.00;;;;;;;15.56;77.21;100020.41;1623576;47;20577;-78
2021/08/18 04:27:53;;;;;;;16.70;9.45;;;;;;;15.55;77.16;100007.94;1622910;47;20632;-79
2021/08/18 04:29:27;;;;;;;16.55;8.75;;;;;;;15.52;77.27;100008.28;1622759;47;20557;-78
2021/08/18 04:31:00;;;;;;;14.63;9.18;;;;;;;15.53;77.17;100010.81;1622275;47;20060;-78
2021/08/18 04:32:34;;;;;;;16.75;9.38;;;;;;;15.56;77.32;100015.00;1624097;54;20042;-78
2021/08/18 04:34:08;;;;;;;14.43;8.27;;;;;;;15.53;77.25;100015.34;1623567;54;20035;-78
2021/08/18 04:35:42;;;;;;;17.88;9.55;;;;;;;15.53;77.35;100010.81;1624802;39;20717;-78
2021/08/18 04:37:16;;;;;;;13.80;9.20;;;;;;;15.52;77.03;100016.38;1624197;47;20090;-77
2021/08/18 04:38:52;;;;;;;13.43;8.80;;;;;;;15.51;77.24;100017.38;1625263;47;20034;-78
2021/08/18 04:40:26;;;;;;;18.73;10.15;;;;;;;15.54;77.22;100019.72;1625190;54;20042;-77
2021/08/18 04:42:13;;;;;;;14.25;9.45;;;;;;;15.57;77.07;100016.69;1629758;54;20074;-77
2021/08/18 04:43:46;;;;;;;16.65;9.45;;;;;;;15.61;76.99;100026.06;1629041;47;20122;-77
2021/08/18 04:45:20;;;;;;;14.45;9.02;;;;;;;15.66;76.96;100022.84;1623979;47;20593;-77
2021/08/18 04:46:54;;;;;;;15.98;9.02;;;;;;;15.71;76.66;100024.00;1624182;47;20031;-77
2021/08/18 04:48:27;;;;;;;16.00;10.32;;;;;;;15.71;76.83;100012.38;1623882;47;20577;-78
2021/08/18 04:49:59;;;;;;;14.90;10.25;;;;;;;15.65;77.08;100027.41;1623853;54;20134;-77
2021/08/18 04:51:32;;;;;;;15.98;9.55;;;;;;;15.62;77.20;100024.22;1624110;47;20054;-76
2021/08/18 04:53:11;;;;;;;13.70;9.30;;;;;;;15.61;77.32;100026.06;1624363;39;20441;-77
2021/08/18 04:54:48;;;;;;;17.10;9.88;;;;;;;15.59;77.42;100026.25;1624193;39;20458;-77
2021/08/18 04:56:22;;;;;;;16.63;9.77;;;;;;;15.55;77.23;100032.19;1623803;54;20064;-78
2021/08/18 04:57:55;;;;;;;16.10;9.88;;;;;;;15.55;77.48;100026.78;1623733;54;20044;-77
2021/08/18 04:59:29;;;;;;;17.42;10.23;;;;;;;15.55;77.43;100029.50;1624080;47;20035;-77
2021/08/18 05:01:02;;;;;;;17.42;10.35;;;;;;;15.54;77.73;100027.81;1623784;47;20030;-76
2021/08/18 05:02:36;;;;;;;16.60;9.30;;;;;;;15.52;77.52;100038.78;1623810;54;20038;-77
2021/08/18 05:04:10;;;;;;;19.85;10.63;;;;;;;15.50;77.69;100027.31;1624092;54;20053;-79
2021/08/18 05:05:44;;;;;;;24.65;10.48;;;;;;;15.50;77.87;100029.16;1623690;50;20057;-77
2021/08/18 05:07:17;;;;;;;12.40;8.75;;;;;;;15.51;77.92;100028.16;1623658;53;20031;-79
2021/08/18 05:08:51;;;;;;;20.48;9.65;;;;;;;15.55;77.42;100024.09;1623759;54;20133;-77
2021/08/18 05:10:28;;;;;;;17.05;9.93;;;;;;;15.55;77.62;100029.50;1623859;47;22205;-77
2021/08/18 05:12:02;;;;;;;14.95;8.82;;;;;;;15.56;77.43;100036.56;1624130;49;20063;-78
2021/08/18 05:13:35;;;;;;;15.75;10.00;;;;;;;15.61;77.30;100031.47;1624248;47;20034;-77
2021/08/18 05:15:10;;;;;;;13.05;8.82;;;;;;;15.62;77.35;100035.84;1624215;47;20117;-79
2021/08/18 05:16:43;;;;;;;17.55;8.90;;;;;;;15.66;77.15;100029.09;1623127;54;20707;-77
2021/08/18 05:18:17;;;;;;;15.80;9.43;;;;;;;15.68;76.96;100021.63;1624072;47;20037;-78
2021/08/18 05:19:51;;;;;;;17.10;9.13;;;;;;;15.63;77.06;100029.44;1624090;47;20041;-77
2021/08/18 05:21:24;;;;;;;18.00;9.82;;;;;;;15.62;77.37;100026.94;1623923;47;20089;-78
2021/08/18 05:22:58;;;;;;;16.83;10.18;;;;;;;15.63;77.41;100031.31;1624010;47;20034;-76
2021/08/18 05:24:31;;;;;;;15.02;9.50;;;;;;;15.61;77.63;100031.47;1623824;52;20129;-77
2021/08/18 05:26:08;;;;;;;15.15;9.73;;;;;;;15.59;77.33;100026.25;1624082;47;20553;-78
2021/08/18 05:27:41;;;;;;;15.48;9.98;;;;;;;15.59;77.67;100028.94;1623744;47;20031;-77
2021/08/18 05:29:15;;;;;;;16.15;9.52;;;;;;;15.64;77.24;100028.41;1624077;47;20031;-77
2021/08/18 05:30:48;;;;;;;15.55;8.20;;;;;;;15.66;77.48;100025.53;1624218;39;20792;-77
2021/08/18 05:32:22;;;;;;;14.73;8.52;;;;;;;15.65;77.19;100030.09;1624413;39;20469;-79
2021/08/18 05:33:55;;;;;;;17.10;9.02;;;;;;;15.69;77.22;100034.09;1624098;39;20496;-78
2021/08/18 05:35:29;;;;;;;15.95;8.52;;;;;;;15.70;77.22;100026.88;1623733;54;20031;-78
2021/08/18 05:37:03;;;;;;;16.48;9.55;;;;;;;15.73;76.81;100031.88;1624035;47;20825;-78
2021/08/18 05:38:37;;;;;;;17.58;9.00;;;;;;;15.70;77.25;100040.34;1623858;47;20037;-76
2021/08/18 05:40:11;;;;;;;17.50;9.48;;;;;;;15.68;77.23;100031.59;1623731;47;20030;-77
2021/08/18 05:41:47;;;;;;;15.85;9.57;;;;;;;15.69;77.04;100034.09;1624273;47;20805;-77
2021/08/18 05:43:21;;;;;;;13.60;8.07;;;;;;;15.65;76.89;100035.50;1624487;46;20050;-77
2021/08/18 05:44:55;;;;;;;15.68;8.93;;;;;;;15.62;77.01;100033.16;1627056;47;20091;-78
2021/08/18 05:46:26;;;;;;;16.60;8.70;;;;;;;15.64;77.37;100039.19;1627818;47;20069;-76
2021/08/18 05:47:59;;;;;;;14.20;8.25;;;;;;;15.61;77.19;100039.53;1624193;47;20031;-77
2021/08/18 05:51:11;;;;;;;16.65;9.38;;;;;;;15.57;77.10;100032.84;1630910;54;20590;-81
2021/08/18 05:52:45;;;;;;;14.25;8.57;;;;;;;15.59;77.50;100036.19;1630665;54;20023;-81
2021/08/18 05:54:19;;;;;;;12.50;8.13;;;;;;;15.65;77.31;100035.50;1630172;47;20094;-79
2021/08/18 05:55:53;;;;;;;14.07;7.85;;;;;;;15.66;77.25;100036.31;1630413;47;20049;-80
2021/08/18 05:57:29;;;;;;;14.70;7.57;;;;;;;15.68;77.25;100036.97;1630817;54;20050;-79
2021/08/18 05:59:03;;;;;;;12.90;9.00;;;;;;;15.70;77.01;100035.78;1630711;47;20065;-81
2021/08/18 06:00:37;;;;;;;16.80;8.63;;;;;;;15.76;76.87;100034.22;1629802;47;20122;-81
2021/08/18 06:02:10;;;;;;;15.52;8.82;;;;;;;15.77;76.79;100037.78;1630198;54;20077;-81
2021/08/18 06:03:47;;;;;;;13.85;9.07;;;;;;;15.75;76.93;100038.78;1631100;31;20604;-81
2021/08/18 06:05:22;;;;;;;11.80;7.38;;;;;;;15.77;76.83;100043.16;1630444;54;20046;-81
2021/08/18 06:06:56;;;;;;;14.68;7.70;;;;;;;15.78;77.00;100034.91;1630374;54;20173;-83
2021/08/18 06:08:30;;;;;;;13.80;7.82;;;;;;;15.78;76.90;100040.28;1630427;54;20081;-81
2021/08/18 06:10:04;;;;;;;12.80;8.13;;;;;;;15.81;76.81;100039.94;1630931;54;20761;-81
2021/08/18 06:11:40;;;;;;;15.07;7.32;;;;;;;15.80;76.71;100043.66;1632800;39;20409;-81
2021/08/18 06:13:16;;;;;;;13.35;8.75;;;;;;;15.79;76.74;100033.03;1631117;54;20038;-80
2021/08/18 06:14:50;;;;;;;12.40;7.43;;;;;;;15.83;77.02;100037.06;1630439;47;20058;-81
2021/08/18 06:16:25;;;;;;;13.80;7.40;;;;;;;15.80;76.85;100038.25;1630479;54;20114;-79
2021/08/18 06:17:58;;;;;;;15.02;7.82;;;;;;;15.81;76.62;100039.09;1631527;54;20065;-81
2021/08/18 06:19:32;;;;;;;11.38;6.75;;;;;;;15.80;76.95;100040.09;1631317;46;20050;-81
2021/08/18 06:21:06;;;;;;;16.98;8.27;;;;;;;15.83;76.77;100042.44;1631260;54;20077;-81
2021/08/18 06:22:39;;;;;;;22.33;9.27;;;;;;;15.84;76.76;100038.75;1631554;54;20057;-79
2021/08/18 06:24:27;;;;;;;16.33;8.70;;;;;;;15.84;76.77;100033.38;1632737;39;20510;-80
2021/08/18 06:26:00;;;;;;;13.50;7.70;;;;;;;15.81;76.81;100037.25;1631595;54;20650;-80
2021/08/18 06:27:34;;;;;;;13.25;7.47;;;;;;;15.85;76.39;100046.66;1631659;54;20042;-81
2021/08/18 06:29:10;;;;;;;14.93;7.75;;;;;;;15.87;76.76;100033.03;1630834;46;20050;-80
2021/08/18 06:30:43;;;;;;;18.23;7.63;;;;;;;15.85;76.54;100041.28;1631634;54;20644;-79
2021/08/18 06:32:38;;;;;;;13.70;7.70;;;;;;;15.86;76.39;100044.81;1630409;47;20194;-81
2021/08/18 06:34:12;;;;;;;13.55;8.05;;;;;;;15.86;76.42;100042.13;1630766;47;20161;-80
2021/08/18 06:35:45;;;;;;;11.48;7.80;;;;;;;15.84;76.56;100044.16;1630911;47;20061;-81
2021/08/18 06:37:19;;;;;;;11.05;6.38;;;;;;;15.84;76.77;100038.75;1631399;39;20110;-82
2021/08/18 06:38:52;;;;;;;11.02;7.18;;;;;;;15.86;76.54;100047.50;1630797;54;20050;-80
2021/08/18 06:40:26;;;;;;;14.18;7.32;;;;;;;15.87;76.43;100046.50;1630842;54;20073;-80
2021/08/18 06:42:00;;;;;;;18.77;9.35;;;;;;;15.87;76.83;100046.50;1630580;46;20095;-80
2021/08/18 06:43:33;;;;;;;13.40;7.45;;;;;;;15.88;76.81;100031.97;1630463;54;20038;-80
2021/08/18 06:45:11;;;;;;;14.70;7.80;;;;;;;15.88;76.69;100045.47;1630443;54;20045;-81
2021/08/18 06:46:45;;;;;;;13.90;7.93;;;;;;;15.90;76.81;100038.03;1630728;54;20126;-80
2021/08/18 06:48:18;;;;;;;15.25;7.70;;;;;;;15.89;76.84;100044.44;1630931;54;20046;-79
2021/08/18 06:49:52;;;;;;;13.07;6.93;;;;;;;15.90;76.75;100038.03;1630310;54;20058;-81
2021/08/18 06:51:25;;;;;;;14.20;7.05;;;;;;;15.93;77.23;100037.69;1630188;54;20769;-81
2021/08/18 06:52:59;;;;;;;13.40;6.72;;;;;;;15.94;77.21;100044.75;1630798;46;20364;-81
2021/08/18 06:54:32;;;;;;;12.88;7.78;;;;;;;15.93;77.24;100040.38;1631244;54;20031;-79
2021/08/18 06:56:07;;;;;;;14.63;7.78;;;;;;;15.91;77.62;100050.50;1630462;54;20627;-79
2021/08/18 06:57:40;;;;;;;18.88;8.60;;;;;;;15.88;77.61;100046.31;1630825;54;20050;-82
2021/08/18 06:59:14;;;;;;;15.65;7.65;;;;;;;15.85;77.54;100037.75;1633085;31;20789;-79
2021/08/18 07:00:51;;;;;;;16.48;7.72;;;;;;;15.82;78.00;100051.53;1630773;47;20040;-78
2021/08/18 07:02:24;;;;;;;14.35;7.40;;;;;;;15.78;78.18;100048.38;1629682;54;20163;-79
2021/08/18 07:03:58;;;;;;;10.70;6.47;;;;;;;15.81;78.03;100050.72;1631209;54;20192;-77
2021/08/18 07:05:34;;;;;;;11.23;6.50;;;;;;;15.83;78.27;100047.84;1630358;39;20497;-78
2021/08/18 07:07:08;;;;;;;10.88;6.15;;;;;;;15.90;78.15;100048.81;1631235;54;20042;-78
2021/08/18 07:08:42;;;;;;;12.77;7.10;;;;;;;15.92;78.11;100038.69;1631138;39;20496;-79
2021/08/18 07:10:17;;;;;;;12.90;7.20;;;;;;;15.90;77.78;100048.81;1630505;46;20034;-77
2021/08/18 07:11:50;;;;;;;15.18;6.90;;;;;;;15.89;77.97;100045.28;1630027;47;20129;-79
2021/08/18 07:13:24;;;;;;;9.45;5.50;;;;;;;15.93;77.82;100037.69;1630462;54;20073;-79